Time;durP1;ratioP1;P1;durP2;ratioP2;P2;SDS_P1;SDS_P2;PMS_P1;PMS_P2;Temp;Humidity;BMP_temperature;BMP_pressure;BME280_temperature;BME280_humidity;BME280_pressure;Samples;Min_cycle;Max_cycle;Signal;HPM_P1;HPM_P2
2023/01/19 00:01:55;;;;;;;6.22;0.70;;;2.10;99.90;;;;;;5103873;28;20216;-58
2023/01/19 00:04:20;;;;;;;2.20;0.70;;;2.60;99.90;;;;;;5083891;28;20082;-59
2023/01/19 00:06:46;;;;;;;1.20;0.60;;;2.00;99.90;;;;;;5102576;28;20040;-58
2023/01/19 00:09:12;;;;;;;5.22;0.77;;;1.80;99.90;;;;;;5103752;28;20071;-58
2023/01/19 00:11:38;;;;;;;3.38;0.70;;;1.80;99.90;;;;;;5100201;28;20064;-58
2023/01/19 00:14:03;;;;;;;3.00;0.75;;;2.00;99.90;;;;;;5102599;28;20036;-59
2023/01/19 00:16:29;;;;;;;4.00;0.77;;;1.80;99.90;;;;;;5100746;28;20516;-59
2023/01/19 00:18:55;;;;;;;2.13;0.75;;;1.80;99.90;;;;;;5103473;28;20044;-58
2023/01/19 00:21:21;;;;;;;2.20;0.70;;;2.20;99.90;;;;;;5101492;28;20047;-59
2023/01/19 00:23:47;;;;;;;3.00;0.95;;;2.00;99.90;;;;;;5102436;28;20072;-58
2023/01/19 00:26:16;;;;;;;3.20;0.82;;;2.60;99.90;;;;;;5103224;28;20054;-58
2023/01/19 00:28:44;;;;;;;4.32;0.63;;;2.20;99.90;;;;;;5100423;28;20527;-58
2023/01/19 00:31:10;;;;;;;2.83;0.65;;;2.30;99.90;;;;;;5103344;28;20040;-58
2023/01/19 00:33:36;;;;;;;3.55;0.68;;;2.00;99.90;;;;;;5100453;28;20044;-58
2023/01/19 00:36:03;;;;;;;2.28;0.90;;;2.50;99.90;;;;;;5102792;28;20052;-58
2023/01/19 00:38:29;;;;;;;1.38;0.70;;;2.00;99.90;;;;;;5101148;28;20061;-58
2023/01/19 00:40:55;;;;;;;1.00;0.50;;;2.60;99.90;;;;;;5083813;28;20082;-58
2023/01/19 00:43:20;;;;;;;5.20;0.80;;;2.60;99.90;;;;;;5102686;28;20044;-58
2023/01/19 00:45:46;;;;;;;2.38;0.80;;;2.60;99.90;;;;;;5100528;28;20036;-58
2023/01/19 00:48:12;;;;;;;2.35;1.00;;;2.60;99.90;;;;;;5084936;28;20063;-58
2023/01/19 00:50:37;;;;;;;1.55;0.85;;;2.30;99.90;;;;;;5099951;28;20036;-58
2023/01/19 00:53:03;;;;;;;2.72;0.70;;;2.50;99.90;;;;;;5102780;28;20044;-58
2023/01/19 00:55:32;;;;;;;2.47;0.80;;;2.70;99.90;;;;;;5081602;28;20241;-58
2023/01/19 00:57:57;;;;;;;2.47;0.82;;;2.60;99.90;;;;;;5064129;28;20070;-58
2023/01/19 01:00:24;;;;;;;3.33;0.80;;;2.00;99.90;;;;;;5081975;28;20088;-58
2023/01/19 01:02:51;;;;;;;2.63;0.70;;;2.60;99.90;;;;;;5080104;28;20119;-58
2023/01/19 01:05:17;;;;;;;2.67;0.95;;;2.80;99.90;;;;;;5082196;28;20100;-58
2023/01/19 01:07:44;;;;;;;2.05;0.55;;;2.60;99.90;;;;;;5079494;28;20048;-58
2023/01/19 01:10:22;;;;;;;3.45;0.88;;;2.00;99.90;;;;;;5081866;28;20044;-58
2023/01/19 01:12:48;;;;;;;3.90;0.60;;;2.80;99.90;;;;;;5080206;28;20049;-58
2023/01/19 01:15:16;;;;;;;1.42;0.60;;;2.70;99.90;;;;;;5080892;28;20072;-58
2023/01/19 01:17:46;;;;;;;4.55;0.90;;;2.00;99.90;;;;;;5082072;28;20112;-58
2023/01/19 01:20:17;;;;;;;2.42;0.68;;;2.00;99.90;;;;;;5079471;28;20041;-59
2023/01/19 01:22:46;;;;;;;1.88;0.70;;;3.00;99.90;;;;;;5081879;28;20045;-59
2023/01/19 01:25:16;;;;;;;3.15;0.80;;;2.10;99.90;;;;;;5078650;28;20078;-59
2023/01/19 01:27:43;;;;;;;2.83;0.88;;;2.80;99.90;;;;;;5082059;28;20032;-58
2023/01/19 01:30:11;;;;;;;3.67;0.70;;;2.10;99.90;;;;;;5080470;28;20044;-58
2023/01/19 01:32:36;;;;;;;2.45;0.82;;;2.60;99.90;;;;;;5079979;28;20068;-59
2023/01/19 01:35:03;;;;;;;3.17;0.65;;;2.40;99.90;;;;;;5063432;28;20053;-58
2023/01/19 01:37:29;;;;;;;3.83;0.80;;;2.60;99.90;;;;;;5078983;28;20059;-58
2023/01/19 01:39:55;;;;;;;4.00;0.80;;;2.00;99.90;;;;;;5063644;28;20080;-59
2023/01/19 01:42:27;;;;;;;3.38;0.85;;;2.10;99.90;;;;;;5078583;28;20040;-60
2023/01/19 01:44:54;;;;;;;2.40;0.60;;;2.10;99.90;;;;;;5081176;28;20040;-60
2023/01/19 01:47:38;;;;;;;1.42;0.77;;;2.20;99.90;;;;;;5080330;28;20044;-59
2023/01/19 01:50:13;;;;;;;3.67;0.80;;;2.20;99.90;;;;;;5078693;28;20086;-60
2023/01/19 01:52:48;;;;;;;2.78;0.70;;;2.70;99.90;;;;;;5081406;28;20040;-60
2023/01/19 01:55:14;;;;;;;1.08;0.75;;;2.20;99.90;;;;;;5095062;28;20059;-59
2023/01/19 01:57:45;;;;;;;4.35;1.33;;;2.30;99.90;;;;;;5101720;28;20032;-60
2023/01/19 02:00:12;;;;;;;2.92;0.80;;;2.90;99.90;;;;;;5100356;28;20048;-59
2023/01/19 02:02:50;;;;;;;2.83;0.60;;;3.00;99.90;;;;;;5099776;28;20043;-60
2023/01/19 02:05:36;;;;;;;3.13;0.65;;;2.60;99.90;;;;;;5101672;28;20036;-59
2023/01/19 02:13:55;;;;;;;7.20;0.90;;;2.90;99.90;;;;;;5101192;28;20135;-59
2023/01/19 02:16:21;;;;;;;6.30;1.02;;;2.70;99.90;;;;;;5098499;28;20144;-59
2023/01/19 02:18:46;;;;;;;4.90;2.05;;;2.30;99.90;;;;;;5101334;28;20032;-59
2023/01/19 02:21:30;;;;;;;6.05;1.00;;;3.40;99.90;;;;;;5099048;28;20048;-59
2023/01/19 02:23:59;;;;;;;5.78;1.00;;;2.30;99.90;;;;;;5099713;28;20044;-59
2023/01/19 02:26:32;;;;;;;7.88;1.48;;;2.30;99.90;;;;;;5101071;28;20040;-59
2023/01/19 02:28:59;;;;;;;6.10;1.10;;;2.80;99.90;;;;;;5098498;28;20054;-59
2023/01/19 02:31:27;;;;;;;8.18;1.17;;;3.20;99.90;;;;;;5100611;28;20575;-59
2023/01/19 02:33:54;;;;;;;7.22;1.20;;;2.40;99.90;;;;;;5080124;28;20047;-59
2023/01/19 02:36:24;;;;;;;7.10;1.65;;;2.60;99.90;;;;;;5099931;28;20051;-58
2023/01/19 02:38:54;;;;;;;6.00;1.40;;;2.50;99.90;;;;;;5082504;28;20044;-59
2023/01/19 02:41:25;;;;;;;6.07;1.25;;;3.50;99.90;;;;;;5098574;28;20036;-59
2023/01/19 02:43:52;;;;;;;3.90;0.90;;;3.60;99.90;;;;;;5100758;28;20043;-59
2023/01/19 02:46:18;;;;;;;14.18;2.25;;;2.50;99.90;;;;;;5098138;28;20059;-59
2023/01/19 02:48:44;;;;;;;10.30;1.30;;;3.30;99.90;;;;;;5101074;28;20044;-59
2023/01/19 02:51:15;;;;;;;7.07;1.00;;;2.70;99.90;;;;;;5098408;28;20052;-59
2023/01/19 02:54:19;;;;;;;4.90;1.80;;;3.50;99.90;;;;;;5100098;28;20055;-60
2023/01/19 02:56:52;;;;;;;6.10;1.58;;;3.30;99.90;;;;;;5100664;28;20055;-60
2023/01/19 02:59:42;;;;;;;10.07;1.45;;;3.40;99.90;;;;;;5098008;28;20414;-59
2023/01/19 03:02:15;;;;;;;6.57;1.27;;;3.20;99.90;;;;;;5100177;28;20040;-59
2023/01/19 03:04:52;;;;;;;6.15;1.02;;;3.60;99.90;;;;;;5100253;28;20048;-60
2023/01/19 03:07:45;;;;;;;7.53;1.35;;;3.60;99.90;;;;;;5097727;28;20110;-60
2023/01/19 03:10:23;;;;;;;7.13;1.42;;;2.60;99.90;;;;;;5100562;28;20039;-61
2023/01/19 03:13:06;;;;;;;10.15;1.88;;;2.60;99.90;;;;;;5099038;28;20469;-63
2023/01/19 03:15:47;;;;;;;;;;;2.90;99.90;;;;;;5098968;28;20135;-66
2023/01/19 03:18:17;;;;;;;5.63;1.10;;;3.60;99.90;;;;;;5100429;28;20368;-64
2023/01/19 03:20:44;;;;;;;3.88;1.17;;;2.70;99.90;;;;;;5097740;28;20052;-63
2023/01/19 03:23:12;;;;;;;8.18;1.17;;;3.30;99.90;;;;;;5100529;28;20068;-62
2023/01/19 03:25:44;;;;;;;7.22;1.98;;;2.90;99.90;;;;;;5080571;28;20040;-61
2023/01/19 03:28:11;;;;;;;;;;;2.60;99.90;;;;;;5099551;28;20048;-61
2023/01/19 03:30:46;;;;;;;5.70;1.70;;;2.70;99.90;;;;;;5100645;28;19946;-61
2023/01/19 03:33:22;;;;;;;8.13;2.20;;;3.40;99.90;;;;;;5097877;28;20074;-61
2023/01/19 03:35:51;;;;;;;8.55;2.45;;;4.20;99.90;;;;;;5100416;28;20059;-61
2023/01/19 03:38:23;;;;;;;5.70;2.50;;;3.20;99.90;;;;;;5063089;28;20047;-61
2023/01/19 03:40:51;;;;;;;6.75;1.95;;;2.60;99.90;;;;;;5099657;28;20048;-61
2023/01/19 03:43:18;;;;;;;6.43;2.50;;;2.90;99.90;;;;;;5100052;28;20054;-60
2023/01/19 03:45:44;;;;;;;5.90;2.40;;;3.60;99.90;;;;;;5097904;28;20032;-61
2023/01/19 03:48:11;;;;;;;5.40;2.38;;;2.90;99.90;;;;;;5085517;28;20055;-60
2023/01/19 03:50:37;;;;;;;7.35;2.60;;;2.80;99.90;;;;;;5101225;28;20040;-59
2023/01/19 03:53:11;;;;;;;7.15;2.63;;;2.50;99.90;;;;;;5085568;28;20069;-60
2023/01/19 03:55:40;;;;;;;8.68;2.72;;;2.90;99.90;;;;;;5082485;28;20045;-60
2023/01/19 03:58:06;;;;;;;7.35;2.47;;;2.70;99.90;;;;;;5082280;28;20119;-60
2023/01/19 04:00:32;;;;;;;8.82;2.83;;;2.80;99.90;;;;;;5083696;28;20047;-60
2023/01/19 04:02:59;;;;;;;6.68;2.50;;;2.80;99.90;;;;;;5080407;28;20493;-60
2023/01/19 04:05:24;;;;;;;7.35;2.42;;;2.50;99.90;;;;;;5083590;28;20048;-60
2023/01/19 04:07:53;;;;;;;7.55;2.45;;;2.40;99.90;;;;;;5080760;28;20368;-60
2023/01/19 04:10:20;;;;;;;6.45;2.67;;;2.70;99.90;;;;;;5083303;28;20074;-60
2023/01/19 04:12:46;;;;;;;8.10;2.67;;;2.50;99.90;;;;;;5063259;28;20496;-59
2023/01/19 04:15:12;;;;;;;6.63;2.60;;;3.10;99.90;;;;;;5082227;28;20509;-60
2023/01/19 04:17:38;;;;;;;6.05;2.55;;;3.40;99.90;;;;;;5083195;28;20036;-60
2023/01/19 04:20:04;;;;;;;11.30;2.95;;;3.40;99.90;;;;;;5080721;28;20040;-60
2023/01/19 04:22:31;;;;;;;9.70;2.75;;;2.80;99.90;;;;;;5083026;28;20041;-57
2023/01/19 04:24:56;;;;;;;9.40;2.63;;;3.30;99.90;;;;;;5080376;28;20045;-59
2023/01/19 04:27:22;;;;;;;6.63;2.83;;;2.30;99.90;;;;;;5083047;28;20153;-60
2023/01/19 04:29:48;;;;;;;8.13;2.70;;;3.10;99.90;;;;;;5081119;28;20048;-59
2023/01/19 04:32:14;;;;;;;7.18;2.45;;;2.20;99.90;;;;;;5082039;28;20129;-58
2023/01/19 04:34:39;;;;;;;7.35;2.47;;;3.20;99.90;;;;;;5082735;28;20056;-59
2023/01/19 04:37:07;;;;;;;6.85;2.38;;;2.80;99.90;;;;;;5080082;28;20109;-59
2023/01/19 04:39:33;;;;;;;9.55;2.55;;;3.30;99.90;;;;;;5082976;28;20049;-59
2023/01/19 04:41:59;;;;;;;6.95;2.58;;;3.20;99.90;;;;;;5045168;28;20051;-59
2023/01/19 04:44:26;;;;;;;6.28;2.50;;;2.50;99.90;;;;;;5082738;28;20560;-59
2023/01/19 04:46:52;;;;;;;6.28;2.53;;;2.20;99.90;;;;;;5062315;28;20079;-60
2023/01/19 04:49:17;;;;;;;6.90;2.45;;;2.40;99.90;;;;;;5082145;28;20045;-59
2023/01/19 04:51:43;;;;;;;10.85;4.05;;;3.00;99.90;;;;;;5082272;28;20040;-56
2023/01/19 04:54:09;;;;;;;5.95;2.78;;;3.00;99.90;;;;;;5087151;28;20081;-58
2023/01/19 04:56:35;;;;;;;8.73;2.03;;;2.30;99.90;;;;;;5103056;28;20042;-59
2023/01/19 04:59:01;;;;;;;7.05;1.98;;;2.90;99.90;;;;;;5099340;28;21001;-59
2023/01/19 05:01:27;;;;;;;6.38;2.13;;;2.20;99.90;;;;;;5102639;28;20040;-58
2023/01/19 05:03:52;;;;;;;7.53;1.75;;;3.10;99.90;;;;;;5100388;28;20052;-59
2023/01/19 05:06:18;;;;;;;5.25;1.80;;;2.60;99.90;;;;;;5102140;28;20038;-58
2023/01/19 05:08:44;;;;;;;4.10;1.63;;;2.20;99.90;;;;;;5101796;28;20069;-58
2023/01/19 05:11:10;;;;;;;5.50;1.73;;;2.40;99.90;;;;;;5100541;28;20105;-59
2023/01/19 05:13:35;;;;;;;3.85;1.10;;;2.80;99.90;;;;;;5102275;28;20066;-58
2023/01/19 05:16:02;;;;;;;7.10;1.30;;;2.10;99.90;;;;;;5099373;28;20127;-59
2023/01/19 05:18:28;;;;;;;3.75;1.48;;;2.80;99.90;;;;;;5102341;28;20051;-58
2023/01/19 05:20:54;;;;;;;4.38;1.48;;;2.70;99.90;;;;;;5099705;28;20051;-59
2023/01/19 05:23:20;;;;;;;3.28;0.70;;;2.00;99.90;;;;;;5101998;28;20062;-59
2023/01/19 05:25:46;;;;;;;3.53;1.23;;;2.20;99.90;;;;;;5101396;28;20036;-58
2023/01/19 05:28:11;;;;;;;3.72;0.80;;;2.70;99.90;;;;;;5100329;28;20040;-59
2023/01/19 05:30:37;;;;;;;5.07;0.82;;;2.70;99.90;;;;;;5083854;28;20052;-59
2023/01/19 05:33:03;;;;;;;4.82;0.80;;;2.30;99.90;;;;;;5099201;28;20043;-59
2023/01/19 05:35:28;;;;;;;5.90;0.80;;;2.80;99.90;;;;;;5083535;28;20048;-58
2023/01/19 05:37:54;;;;;;;5.03;1.15;;;2.70;99.90;;;;;;5099212;28;20062;-59
2023/01/19 05:40:20;;;;;;;4.53;0.80;;;2.80;99.90;;;;;;5102077;28;20526;-60
2023/01/19 05:42:46;;;;;;;8.88;1.00;;;2.30;99.90;;;;;;5100038;28;20071;-58
2023/01/19 05:45:11;;;;;;;5.47;1.40;;;3.10;99.90;;;;;;5082235;28;20040;-58
2023/01/19 05:47:38;;;;;;;6.38;1.10;;;2.70;99.90;;;;;;5101804;28;20044;-58
2023/01/19 05:50:05;;;;;;;11.63;1.52;;;2.50;99.90;;;;;;5099044;28;20095;-59
2023/01/19 05:52:30;;;;;;;4.05;0.82;;;2.80;99.90;;;;;;5101769;28;20044;-59
2023/01/19 05:54:56;;;;;;;7.00;1.00;;;2.90;99.90;;;;;;5084621;28;20041;-58
2023/01/19 05:57:22;;;;;;;4.60;0.90;;;2.60;99.90;;;;;;5081130;28;20041;-58
2023/01/19 05:59:47;;;;;;;3.15;0.70;;;2.90;99.90;;;;;;5079280;28;20104;-57
2023/01/19 06:02:13;;;;;;;3.15;0.73;;;2.50;99.90;;;;;;5080009;28;20036;-57
2023/01/19 06:04:39;;;;;;;5.05;1.17;;;2.90;99.90;;;;;;5063201;28;20057;-57
2023/01/19 06:07:05;;;;;;;6.72;0.93;;;2.40;99.90;;;;;;5078396;28;20087;-59
2023/01/19 06:09:32;;;;;;;6.50;0.95;;;2.40;99.90;;;;;;5080912;28;20067;-58
2023/01/19 06:11:58;;;;;;;6.07;1.80;;;2.40;99.90;;;;;;5077867;28;20493;-59
2023/01/19 06:14:25;;;;;;;5.15;1.70;;;2.80;99.90;;;;;;5080954;28;20048;-59
2023/01/19 06:16:51;;;;;;;7.07;1.48;;;2.30;99.90;;;;;;5060936;28;20079;-59
2023/01/19 06:19:16;;;;;;;8.60;1.13;;;2.30;99.90;;;;;;5080303;28;20049;-59
2023/01/19 06:21:48;;;;;;;11.10;1.23;;;3.00;99.90;;;;;;5080515;28;20408;-59
2023/01/19 06:24:17;;;;;;;6.07;1.13;;;3.00;99.90;;;;;;5078179;28;20064;-59
2023/01/19 06:26:43;;;;;;;7.43;1.42;;;3.10;99.90;;;;;;5080898;28;20040;-59
2023/01/19 06:29:10;;;;;;;6.88;1.15;;;2.60;99.90;;;;;;5077989;28;20105;-60
2023/01/19 06:31:36;;;;;;;6.22;0.85;;;2.50;99.90;;;;;;5080681;28;20052;-58
2023/01/19 06:34:02;;;;;;;7.05;1.52;;;2.80;99.90;;;;;;5078433;28;20037;-58
2023/01/19 06:36:28;;;;;;;8.13;1.38;;;2.60;99.90;;;;;;5079970;28;20052;-59
2023/01/19 06:38:54;;;;;;;10.02;1.45;;;3.10;99.90;;;;;;5080688;28;20074;-59
2023/01/19 06:41:19;;;;;;;8.15;1.23;;;3.10;99.90;;;;;;5078016;28;20033;-58
2023/01/19 06:43:45;;;;;;;4.85;0.82;;;2.70;99.90;;;;;;5080389;28;20059;-59
2023/01/19 06:46:10;;;;;;;9.73;1.13;;;2.90;99.90;;;;;;5077902;28;20075;-59
2023/01/19 06:48:36;;;;;;;10.13;1.27;;;2.90;99.90;;;;;;5080731;28;20041;-59
2023/01/19 06:51:02;;;;;;;6.25;0.93;;;2.60;99.90;;;;;;5060172;28;20044;-59
2023/01/19 06:53:29;;;;;;;8.70;1.23;;;2.90;99.90;;;;;;5081816;28;20453;-59
2023/01/19 06:55:59;;;;;;;7.30;1.20;;;2.90;99.90;;;;;;5099977;28;20048;-59
2023/01/19 06:58:25;;;;;;;6.47;1.08;;;3.30;99.90;;;;;;5098380;28;20515;-59
2023/01/19 07:00:51;;;;;;;5.45;1.02;;;3.30;99.90;;;;;;5097081;28;20044;-58
2023/01/19 07:03:20;;;;;;;8.15;0.98;;;3.20;99.90;;;;;;5094473;28;20062;-59
2023/01/19 07:05:49;;;;;;;7.88;1.35;;;3.60;99.90;;;;;;5096793;28;20048;-59
2023/01/19 07:08:15;;;;;;;5.90;1.02;;;3.20;99.90;;;;;;5094812;28;20404;-59
2023/01/19 07:10:40;;;;;;;8.75;1.17;;;3.10;99.90;;;;;;5095222;28;20048;-58
2023/01/19 07:13:06;;;;;;;11.90;1.98;;;3.60;99.90;;;;;;5095962;28;20055;-58
2023/01/19 07:15:31;;;;;;;8.68;1.58;;;3.10;99.90;;;;;;5094324;28;20067;-58
2023/01/19 07:17:58;;;;;;;9.88;1.58;;;3.10;99.90;;;;;;5078773;28;20044;-59
2023/01/19 07:20:24;;;;;;;14.40;1.65;;;3.10;99.90;;;;;;5093780;28;20051;-58
2023/01/19 07:22:55;;;;;;;10.45;2.13;;;3.20;99.90;;;;;;5080561;28;20125;-58
2023/01/19 07:25:21;;;;;;;12.68;1.98;;;3.30;99.90;;;;;;5098200;28;20044;-58
2023/01/19 07:27:47;;;;;;;12.02;1.98;;;3.10;99.90;;;;;;5099717;28;20044;-58
2023/01/19 07:30:14;;;;;;;11.00;1.33;;;2.90;99.90;;;;;;5099938;28;20047;-57
2023/01/19 07:32:41;;;;;;;9.70;1.42;;;3.50;99.90;;;;;;5097375;28;20048;-58
2023/01/19 07:35:08;;;;;;;17.45;2.40;;;2.90;99.90;;;;;;5099618;28;20079;-58
2023/01/19 07:37:34;;;;;;;10.55;1.50;;;3.60;99.90;;;;;;5097038;28;20568;-58
2023/01/19 07:40:00;;;;;;;8.23;1.63;;;3.60;99.90;;;;;;5100393;28;20056;-58
2023/01/19 07:42:26;;;;;;;13.93;1.85;;;3.20;99.90;;;;;;5097503;28;20036;-58
2023/01/19 07:44:52;;;;;;;19.33;1.90;;;3.30;99.90;;;;;;5099339;28;20079;-58
2023/01/19 07:47:18;;;;;;;8.45;1.30;;;3.70;99.90;;;;;;5081098;28;20043;-57
2023/01/19 07:49:43;;;;;;;7.10;1.20;;;3.70;99.90;;;;;;5097724;28;20054;-58
2023/01/19 07:52:09;;;;;;;4.70;1.00;;;3.50;99.90;;;;;;5099698;28;20167;-56
2023/01/19 07:54:35;;;;;;;7.88;0.95;;;3.50;99.90;;;;;;5078855;28;20055;-56
2023/01/19 07:57:01;;;;;;;7.50;1.30;;;3.20;99.90;;;;;;5099801;28;20031;-58
2023/01/19 07:59:29;;;;;;;7.22;1.73;;;3.60;99.90;;;;;;5096919;28;20086;-58
2023/01/19 08:01:56;;;;;;;6.75;1.13;;;3.60;99.90;;;;;;5099660;28;20092;-59
2023/01/19 08:04:22;;;;;;;10.50;1.58;;;3.50;99.90;;;;;;5099286;28;20052;-58
2023/01/19 08:06:48;;;;;;;13.13;2.08;;;3.50;99.90;;;;;;5098522;28;20035;-59
2023/01/19 08:09:14;;;;;;;15.10;1.98;;;3.50;99.90;;;;;;5100553;28;20048;-59
2023/01/19 08:11:39;;;;;;;13.52;2.05;;;3.60;99.90;;;;;;5096973;28;20083;-58
2023/01/19 08:14:05;;;;;;;15.50;1.90;;;4.00;99.90;;;;;;5100308;28;20486;-59
2023/01/19 08:16:31;;;;;;;12.25;2.25;;;3.70;99.90;;;;;;5097589;28;20056;-59
2023/01/19 08:18:56;;;;;;;11.70;1.88;;;4.00;99.90;;;;;;5100169;28;20127;-59
2023/01/19 08:21:22;;;;;;;10.82;1.20;;;3.80;99.90;;;;;;5098689;28;20043;-59
2023/01/19 08:23:55;;;;;;;9.15;1.70;;;3.70;99.90;;;;;;5098304;28;20055;-58
2023/01/19 08:26:28;;;;;;;7.43;1.10;;;3.80;99.90;;;;;;5100141;28;20109;-59
2023/01/19 08:28:56;;;;;;;14.00;1.60;;;3.70;99.90;;;;;;5078554;28;20048;-59
2023/01/19 08:31:22;;;;;;;11.38;1.88;;;3.70;99.90;;;;;;5098952;28;20108;-58
2023/01/19 08:33:48;;;;;;;13.63;1.90;;;3.70;99.90;;;;;;5077065;28;20075;-59
2023/01/19 08:36:14;;;;;;;9.88;1.13;;;3.30;99.90;;;;;;5079622;28;20060;-59
2023/01/19 08:38:42;;;;;;;10.38;1.58;;;3.40;99.90;;;;;;5098578;28;20113;-59
2023/01/19 08:41:08;;;;;;;12.15;1.67;;;3.30;99.90;;;;;;5096958;28;20592;-59
2023/01/19 08:43:34;;;;;;;16.17;2.65;;;3.30;99.90;;;;;;5099074;28;20048;-59
2023/01/19 08:46:00;;;;;;;12.60;2.08;;;3.20;99.90;;;;;;5096296;28;20159;-59
2023/01/19 08:48:25;;;;;;;6.82;1.23;;;3.30;99.90;;;;;;5098511;28;20048;-59
2023/01/19 08:50:52;;;;;;;3.63;1.00;;;3.50;99.90;;;;;;5096047;28;20126;-58
2023/01/19 08:53:22;;;;;;;5.28;1.15;;;3.50;99.90;;;;;;5093365;28;20083;-59
2023/01/19 08:55:49;;;;;;;7.32;1.63;;;3.50;99.90;;;;;;5087543;28;20039;-57
2023/01/19 08:58:15;;;;;;;14.90;2.08;;;3.30;99.90;;;;;;5082658;28;20047;-58
2023/01/19 09:00:41;;;;;;;8.02;1.40;;;3.20;99.90;;;;;;5085385;28;20052;-57
2023/01/19 09:03:10;;;;;;;10.45;1.42;;;3.20;99.90;;;;;;5085911;28;20040;-58
2023/01/19 09:05:37;;;;;;;8.07;1.30;;;3.30;99.90;;;;;;5087489;28;20060;-59
2023/01/19 09:08:08;;;;;;;4.97;1.38;;;3.10;99.90;;;;;;5085165;28;20067;-58
2023/01/19 09:10:36;;;;;;;8.57;1.45;;;3.20;99.90;;;;;;5086098;28;20507;-58
2023/01/19 09:13:07;;;;;;;7.78;1.52;;;3.00;99.90;;;;;;5063342;28;20045;-59
2023/01/19 09:15:34;;;;;;;10.55;1.50;;;3.30;99.90;;;;;;5075405;28;20039;-58
2023/01/19 09:18:01;;;;;;;4.32;1.17;;;3.10;99.90;;;;;;5081211;28;20048;-59
2023/01/19 09:20:29;;;;;;;5.70;1.40;;;3.20;99.90;;;;;;5086467;28;20599;-58
2023/01/19 09:22:56;;;;;;;4.85;1.05;;;3.20;99.90;;;;;;5086866;28;20051;-56
2023/01/19 09:25:22;;;;;;;5.65;2.05;;;3.60;99.90;;;;;;5048622;28;20051;-58
2023/01/19 09:27:48;;;;;;;9.80;1.10;;;3.20;99.90;;;;;;5086048;28;20032;-58
2023/01/19 09:30:13;;;;;;;6.15;0.98;;;3.30;99.90;;;;;;5086834;28;20364;-58
2023/01/19 09:32:39;;;;;;;4.13;1.00;;;3.20;99.90;;;;;;5082596;28;20052;-59
2023/01/19 09:35:05;;;;;;;6.10;1.00;;;3.40;99.90;;;;;;5086789;28;20044;-58
2023/01/19 09:37:31;;;;;;;6.10;1.20;;;3.50;99.90;;;;;;5083424;28;20691;-58
2023/01/19 09:39:57;;;;;;;4.05;1.08;;;3.50;99.90;;;;;;5085495;28;20060;-59
2023/01/19 09:42:42;;;;;;;8.75;1.23;;;3.40;99.90;;;;;;5085028;28;20547;-59
2023/01/19 09:45:18;;;;;;;2.83;0.90;;;3.60;99.90;;;;;;5087394;28;20079;-58
2023/01/19 09:47:47;;;;;;;8.10;1.30;;;3.60;99.90;;;;;;5099895;28;20111;-58
2023/01/19 09:50:45;;;;;;;6.68;1.08;;;3.70;99.90;;;;;;5079341;28;20044;-58
2023/01/19 09:53:34;;;;;;;6.97;1.35;;;3.50;99.90;;;;;;5099675;28;20056;-59
2023/01/19 09:55:59;;;;;;;8.07;1.35;;;3.70;99.90;;;;;;5051364;28;20139;-58
2023/01/19 09:58:25;;;;;;;7.22;1.05;;;3.70;99.90;;;;;;5078447;28;20044;-58
2023/01/19 10:01:01;;;;;;;5.20;1.23;;;3.80;99.90;;;;;;5081037;28;20043;-59
2023/01/19 10:03:27;;;;;;;3.80;0.80;;;3.90;99.90;;;;;;5078159;28;20044;-58
2023/01/19 10:06:07;;;;;;;10.38;1.50;;;3.80;99.90;;;;;;5063044;28;20045;-58
2023/01/19 10:08:58;;;;;;;5.95;1.10;;;4.10;99.90;;;;;;5079829;28;20079;-58
2023/01/19 10:11:41;;;;;;;7.53;1.60;;;4.10;99.90;;;;;;5077942;28;20044;-58
2023/01/19 10:14:17;;;;;;;11.38;2.47;;;3.90;99.90;;;;;;5080440;28;20045;-58
2023/01/19 10:17:34;;;;;;;6.50;2.13;;;4.20;99.90;;;;;;5078615;28;20040;-57
2023/01/19 10:20:02;;;;;;;4.18;1.20;;;4.30;99.90;;;;;;5003623;28;20049;-58
2023/01/19 10:22:27;;;;;;;6.30;1.40;;;4.10;99.90;;;;;;5080277;28;20075;-58
2023/01/19 10:25:00;;;;;;;6.30;1.23;;;4.30;99.90;;;;;;5077913;28;20032;-58
2023/01/19 10:27:29;;;;;;;8.73;1.73;;;4.20;99.90;;;;;;5080196;28;20036;-58
2023/01/19 10:29:56;;;;;;;9.38;2.78;;;4.40;99.90;;;;;;5079281;28;20066;-57
2023/01/19 10:32:40;;;;;;;7.07;1.38;;;4.30;99.90;;;;;;5077973;28;20082;-58
2023/01/19 10:35:22;;;;;;;11.68;2.50;;;4.40;99.90;;;;;;5080099;28;20062;-58
2023/01/19 10:37:49;;;;;;;5.60;1.75;;;4.30;99.90;;;;;;5077225;28;20078;-57
2023/01/19 10:40:19;;;;;;;6.78;2.30;;;4.40;99.90;;;;;;5080072;28;20041;-58
2023/01/19 10:42:45;;;;;;;5.60;1.25;;;4.50;99.90;;;;;;5078513;28;20052;-58
2023/01/19 10:45:20;;;;;;;11.45;2.13;;;4.60;99.90;;;;;;5077875;28;20248;-58
2023/01/19 10:47:47;;;;;;;7.00;1.50;;;4.70;99.90;;;;;;5080220;28;20346;-58
2023/01/19 10:50:26;;;;;;;11.93;1.95;;;4.80;99.90;;;;;;5079198;28;20075;-56
2023/01/19 10:52:57;;;;;;;6.75;1.13;;;4.70;99.90;;;;;;5083934;28;20050;-58
2023/01/19 10:55:24;;;;;;;13.17;1.50;;;4.70;99.90;;;;;;5097604;28;20068;-58
2023/01/19 10:57:52;;;;;;;7.70;1.50;;;4.70;99.90;;;;;;5097571;28;20040;-58
2023/01/19 11:00:37;;;;;;;10.43;1.88;;;4.90;99.90;;;;;;5100180;28;20052;-58
2023/01/19 11:03:19;;;;;;;10.48;1.50;;;4.90;99.90;;;;;;5078852;28;20056;-58
2023/01/19 11:05:45;;;;;;;7.72;1.08;;;4.80;99.90;;;;;;5099623;28;20583;-58
2023/01/19 11:08:29;;;;;;;7.40;1.05;;;4.80;99.90;;;;;;5085958;28;20052;-58
2023/01/19 11:11:02;;;;;;;7.85;2.00;;;4.80;99.90;;;;;;5083189;28;20059;-58
2023/01/19 11:13:28;;;;;;;5.10;1.40;;;4.80;99.90;;;;;;5079403;28;20036;-58
2023/01/19 11:15:58;;;;;;;9.13;1.75;;;4.70;99.90;;;;;;5077000;28;20048;-58
2023/01/19 11:18:29;;;;;;;17.13;2.78;;;4.90;99.90;;;;;;5079275;28;20075;-58
2023/01/19 11:21:02;;;;;;;5.93;1.52;;;5.00;99.90;;;;;;5077439;28;20048;-58
2023/01/19 11:23:31;;;;;;;4.05;1.33;;;5.00;99.90;;;;;;5078747;28;20499;-58
2023/01/19 11:26:04;;;;;;;8.00;1.50;;;5.20;99.90;;;;;;5079781;28;20052;-58
2023/01/19 11:28:34;;;;;;;5.30;1.02;;;5.20;99.90;;;;;;5058970;28;20048;-58
2023/01/19 11:31:15;;;;;;;12.77;1.65;;;5.30;99.90;;;;;;5079497;28;20055;-57
2023/01/19 11:33:49;;;;;;;4.65;1.25;;;5.30;99.90;;;;;;5077279;28;20044;-58
2023/01/19 11:36:27;;;;;;;4.95;1.33;;;5.40;99.90;;;;;;5078838;28;20040;-58
2023/01/19 11:38:58;;;;;;;5.68;1.10;;;5.40;99.90;;;;;;5061857;28;20086;-58
2023/01/19 11:41:29;;;;;;;5.73;1.60;;;5.50;99.90;;;;;;5058944;28;20049;-58
2023/01/19 11:43:59;;;;;;;12.10;1.67;;;5.60;99.90;;;;;;5079517;28;20056;-59
2023/01/19 11:46:30;;;;;;;8.85;1.83;;;5.90;99.90;;;;;;5077275;28;20048;-59
2023/01/19 11:49:05;;;;;;;6.00;0.82;;;6.10;99.90;;;;;;5079126;28;20048;-59
2023/01/19 11:51:40;;;;;;;4.13;0.98;;;6.30;99.90;;;;;;5079325;28;20049;-58
2023/01/19 11:54:19;;;;;;;6.97;1.30;;;6.10;99.90;;;;;;5083990;28;20052;-59
2023/01/19 11:56:47;;;;;;;10.20;1.23;;;5.90;99.90;;;;;;5097089;28;20071;-59
2023/01/19 11:59:13;;;;;;;9.20;1.88;;;5.50;99.90;;;;;;5096949;28;20040;-58
2023/01/19 12:01:48;;;;;;;9.98;1.33;;;5.30;99.90;;;;;;5099561;28;20131;-58
2023/01/19 12:04:19;;;;;;;9.88;1.33;;;5.10;99.90;;;;;;5098861;28;20044;-58
2023/01/19 12:06:54;;;;;;;6.78;1.90;;;5.00;99.90;;;;;;5077074;28;20079;-59
2023/01/19 12:09:26;;;;;;;7.43;1.05;;;4.90;99.90;;;;;;5082772;28;20041;-59
2023/01/19 12:12:07;;;;;;;4.95;2.00;;;4.90;99.90;;;;;;5081990;28;20056;-58
2023/01/19 12:14:58;;;;;;;4.25;1.08;;;4.90;99.90;;;;;;5082271;28;20444;-58
2023/01/19 12:17:28;;;;;;;7.05;1.23;;;5.10;99.90;;;;;;5071483;28;20060;-58
2023/01/19 12:20:11;;;;;;;5.97;1.20;;;5.20;99.90;;;;;;5080127;28;20532;-58
2023/01/19 12:22:49;;;;;;;5.30;0.90;;;5.20;99.90;;;;;;5082855;28;20575;-58
2023/01/19 12:25:35;;;;;;;6.38;1.30;;;5.20;99.90;;;;;;5080274;28;20094;-58
2023/01/19 12:28:01;;;;;;;4.30;0.98;;;5.40;99.90;;;;;;5080898;28;20587;-59
2023/01/19 12:30:28;;;;;;;9.10;1.17;;;5.30;99.90;;;;;;5082768;28;20049;-58
2023/01/19 12:33:19;;;;;;;6.72;1.35;;;5.30;99.90;;;;;;5061790;28;20051;-58
2023/01/19 12:35:59;;;;;;;9.35;1.38;;;5.10;99.90;;;;;;5088337;28;20048;-59
2023/01/19 12:38:51;;;;;;;4.35;1.05;;;5.10;99.90;;;;;;5081226;28;20052;-58
2023/01/19 12:41:33;;;;;;;5.13;1.00;;;5.00;99.90;;;;;;5079313;28;20037;-58
2023/01/19 12:44:15;;;;;;;3.35;0.98;;;4.90;99.90;;;;;;5081668;28;20271;-58
2023/01/19 12:46:45;;;;;;;7.18;1.80;;;4.80;99.90;;;;;;5086608;28;20094;-58
2023/01/19 12:49:36;;;;;;;4.80;1.17;;;4.80;99.90;;;;;;5091831;28;20037;-58
2023/01/19 12:52:19;;;;;;;5.78;1.20;;;4.70;99.90;;;;;;5093174;28;20093;-58
2023/01/19 12:54:54;;;;;;;7.82;1.10;;;4.60;99.90;;;;;;5086854;28;20067;-58
2023/01/19 12:57:25;;;;;;;4.85;1.13;;;4.60;99.90;;;;;;5091698;28;20151;-58
2023/01/19 13:00:05;;;;;;;6.93;1.10;;;4.40;99.90;;;;;;5091398;28;20036;-58
2023/01/19 13:02:45;;;;;;;4.22;0.77;;;4.30;99.90;;;;;;5089326;28;20120;-59
2023/01/19 13:05:16;;;;;;;6.65;2.45;;;4.40;99.90;;;;;;5090122;28;20101;-58
2023/01/19 13:08:00;;;;;;;5.20;1.02;;;4.30;99.90;;;;;;5086987;28;20044;-57
2023/01/19 13:10:52;;;;;;;6.78;1.20;;;4.30;99.90;;;;;;5089919;28;20304;-58
2023/01/19 13:13:19;;;;;;;8.65;1.55;;;4.20;99.90;;;;;;5091940;28;20048;-58
2023/01/19 13:15:45;;;;;;;3.80;1.20;;;4.10;99.90;;;;;;5093302;28;20032;-57